BAW8NG EGLL-LKPR
Flight info
| Callsign | BAW8NG |
|---|---|
| Flight time | 1h 31m |
| Altitude | 37000 |
| Route | BPK6J BPK Q295 BRAIN M197 REDFA DCT TACHA DCT NOMKA DCT SUVUT L620 PIKIB T620 LALUK DCT GOLOP GOLOP5R |
| Aircraft | A320/M-SDE3FGHIRWY/LB1 |
Departure
| Time | 2026-05-06 17:38 |
|---|---|
| Airport | London Heathrow Airport (EGLL) |
Arrival
| Time | 2026-05-06 19:09 |
|---|---|
| Airport | Václav Havel Airport Prague (LKPR) |
| Time | Latitude | Longitude | Altitude | Speed | Heading |
|---|---|---|---|---|---|
| 2026-05-06 17:03 | 51.46934 | -0.45970 | 86 ft | 0 kts | 56° |
| 2026-05-06 17:26 | 51.46921 | -0.46000 | 88 ft | 4 kts | 56° |
| 2026-05-06 17:26 | 51.46909 | -0.46028 | 90 ft | 4 kts | 40° |
| 2026-05-06 17:26 | 51.46888 | -0.46043 | 89 ft | 4 kts | 348° |
| 2026-05-06 17:27 | 51.46865 | -0.46027 | 87 ft | 4 kts | 326° |
| 2026-05-06 17:27 | 51.46845 | -0.46004 | 90 ft | 2 kts | 326° |
| 2026-05-06 17:27 | 51.46825 | -0.45987 | 87 ft | 4 kts | 349° |
| 2026-05-06 17:27 | 51.46800 | -0.45984 | 88 ft | 2 kts | 359° |
| 2026-05-06 17:28 | 51.46775 | -0.45980 | 91 ft | 4 kts | 340° |
| 2026-05-06 17:28 | 51.46754 | -0.45959 | 89 ft | 4 kts | 300° |
| 2026-05-06 17:28 | 51.46748 | -0.45922 | 87 ft | 4 kts | 270° |
| 2026-05-06 17:28 | 51.46748 | -0.45903 | 87 ft | 0 kts | 270° |
| 2026-05-06 17:32 | 51.46748 | -0.45911 | 87 ft | 3 kts | 270° |
| 2026-05-06 17:32 | 51.46748 | -0.45975 | 88 ft | 7 kts | 270° |
| 2026-05-06 17:32 | 51.46749 | -0.46072 | 86 ft | 10 kts | 269° |
| 2026-05-06 17:32 | 51.46748 | -0.46198 | 86 ft | 12 kts | 269° |
| 2026-05-06 17:33 | 51.46747 | -0.46350 | 88 ft | 15 kts | 269° |
| 2026-05-06 17:33 | 51.46748 | -0.46532 | 86 ft | 18 kts | 271° |
| 2026-05-06 17:33 | 51.46747 | -0.46744 | 91 ft | 20 kts | 270° |
| 2026-05-06 17:33 | 51.46747 | -0.46990 | 86 ft | 23 kts | 270° |
| 2026-05-06 17:34 | 51.46746 | -0.47203 | 86 ft | 6 kts | 269° |
| 2026-05-06 17:34 | 51.46746 | -0.47282 | 86 ft | 10 kts | 270° |
| 2026-05-06 17:34 | 51.46745 | -0.47429 | 86 ft | 17 kts | 269° |
| 2026-05-06 17:34 | 51.46745 | -0.47656 | 87 ft | 24 kts | 273° |
| 2026-05-06 17:35 | 51.46744 | -0.47946 | 87 ft | 24 kts | 271° |
| 2026-05-06 17:35 | 51.46744 | -0.48101 | 86 ft | 8 kts | 269° |
| 2026-05-06 17:35 | 51.46741 | -0.48201 | 86 ft | 10 kts | 268° |
| 2026-05-06 17:36 | 51.46743 | -0.48430 | 87 ft | 0 kts | 270° |
| 2026-05-06 17:36 | 51.46742 | -0.48463 | 86 ft | 3 kts | 259° |
| 2026-05-06 17:36 | 51.46686 | -0.48471 | 86 ft | 11 kts | 176° |
| 2026-05-06 17:36 | 51.46600 | -0.48467 | 86 ft | 14 kts | 179° |
| 2026-05-06 17:37 | 51.46499 | -0.48459 | 90 ft | 15 kts | 151° |
| 2026-05-06 17:37 | 51.46479 | -0.48298 | 88 ft | 16 kts | 90° |
| 2026-05-06 17:37 | 51.46483 | -0.47898 | 87 ft | 70 kts | 89° |
| 2026-05-06 17:37 | 51.46483 | -0.46784 | 89 ft | 127 kts | 90° |
| 2026-05-06 17:38 | 51.46484 | -0.45132 | 141 ft | 165 kts | 89° |
| 2026-05-06 17:38 | 51.46479 | -0.43345 | 881 ft | 157 kts | 88° |
| 2026-05-06 17:38 | 51.46514 | -0.41571 | 1447 ft | 167 kts | 80° |
| 2026-05-06 17:38 | 51.46994 | -0.39832 | 1732 ft | 182 kts | 44° |
| 2026-05-06 17:39 | 51.47938 | -0.38279 | 2047 ft | 203 kts | 46° |
| 2026-05-06 17:39 | 51.48909 | -0.36485 | 2483 ft | 222 kts | 48° |
| 2026-05-06 17:39 | 51.49942 | -0.34487 | 3059 ft | 242 kts | 48° |
| 2026-05-06 17:39 | 51.51028 | -0.32342 | 3920 ft | 251 kts | 49° |
| 2026-05-06 17:40 | 51.52124 | -0.30111 | 4829 ft | 259 kts | 54° |
| 2026-05-06 17:40 | 51.52869 | -0.27442 | 5719 ft | 267 kts | 69° |
| 2026-05-06 17:40 | 51.53484 | -0.24602 | 6649 ft | 271 kts | 64° |
| 2026-05-06 17:40 | 51.54472 | -0.22038 | 7476 ft | 273 kts | 46° |
| 2026-05-06 17:41 | 51.55959 | -0.20155 | 8337 ft | 274 kts | 24° |
| 2026-05-06 17:41 | 51.57740 | -0.19054 | 9259 ft | 276 kts | 18° |
| 2026-05-06 17:41 | 51.59556 | -0.17970 | 10081 ft | 281 kts | 15° |
| 2026-05-06 17:41 | 51.61491 | -0.17012 | 10463 ft | 302 kts | 15° |
| 2026-05-06 17:42 | 51.63581 | -0.15991 | 10698 ft | 325 kts | 15° |
| 2026-05-06 17:42 | 51.65808 | -0.14924 | 11078 ft | 340 kts | 14° |
| 2026-05-06 17:42 | 51.68095 | -0.13805 | 11747 ft | 346 kts | 18° |
| 2026-05-06 17:42 | 51.70301 | -0.12156 | 12421 ft | 353 kts | 28° |
| 2026-05-06 17:43 | 51.72331 | -0.09796 | 13119 ft | 359 kts | 40° |
| 2026-05-06 17:43 | 51.74018 | -0.06784 | 13811 ft | 366 kts | 53° |
| 2026-05-06 17:43 | 51.75263 | -0.03155 | 14425 ft | 373 kts | 67° |
| 2026-05-06 17:43 | 51.75961 | 0.00898 | 14807 ft | 379 kts | 79° |
| 2026-05-06 17:44 | 51.76322 | 0.05121 | 15010 ft | 380 kts | 81° |
| 2026-05-06 17:44 | 51.76665 | 0.09355 | 15601 ft | 383 kts | 81° |
| 2026-05-06 17:44 | 51.77007 | 0.13654 | 16207 ft | 386 kts | 82° |
| 2026-05-06 17:44 | 51.77350 | 0.17972 | 16822 ft | 389 kts | 82° |
| 2026-05-06 17:45 | 51.77700 | 0.22320 | 17395 ft | 394 kts | 82° |
| 2026-05-06 17:45 | 51.78054 | 0.26694 | 18035 ft | 396 kts | 82° |
| 2026-05-06 17:45 | 51.78414 | 0.31156 | 18584 ft | 400 kts | 82° |
| 2026-05-06 17:45 | 51.78776 | 0.35633 | 19109 ft | 404 kts | 82° |
| 2026-05-06 17:46 | 51.79140 | 0.40150 | 19670 ft | 407 kts | 82° |
| 2026-05-06 17:46 | 51.79499 | 0.44620 | 20187 ft | 411 kts | 82° |
| 2026-05-06 17:46 | 51.79874 | 0.49298 | 20746 ft | 414 kts | 82° |
| 2026-05-06 17:46 | 51.80239 | 0.53920 | 21254 ft | 416 kts | 83° |
| 2026-05-06 17:47 | 51.80600 | 0.58578 | 21758 ft | 419 kts | 83° |
| 2026-05-06 17:47 | 51.80964 | 0.63270 | 22237 ft | 423 kts | 82° |
| 2026-05-06 17:47 | 51.81537 | 0.67946 | 22678 ft | 426 kts | 76° |
| 2026-05-06 17:47 | 51.82266 | 0.72620 | 23138 ft | 430 kts | 76° |
| 2026-05-06 17:48 | 51.82992 | 0.77318 | 23601 ft | 433 kts | 76° |
| 2026-05-06 17:48 | 51.83722 | 0.82067 | 23982 ft | 436 kts | 76° |
| 2026-05-06 17:48 | 51.84508 | 0.86825 | 24372 ft | 439 kts | 74° |
| 2026-05-06 17:48 | 51.85362 | 0.91575 | 24757 ft | 442 kts | 73° |
| 2026-05-06 17:49 | 51.86259 | 0.96343 | 25137 ft | 444 kts | 73° |
| 2026-05-06 17:49 | 51.87171 | 1.01131 | 25513 ft | 446 kts | 73° |
| 2026-05-06 17:49 | 51.88080 | 1.05946 | 25894 ft | 449 kts | 73° |
| 2026-05-06 17:49 | 51.88977 | 1.10797 | 26285 ft | 451 kts | 73° |
| 2026-05-06 17:50 | 51.89863 | 1.15682 | 26685 ft | 454 kts | 74° |
| 2026-05-06 17:50 | 51.90744 | 1.20604 | 27076 ft | 456 kts | 74° |
| 2026-05-06 17:50 | 51.91624 | 1.25549 | 27465 ft | 458 kts | 74° |
| 2026-05-06 17:50 | 51.92505 | 1.30527 | 27844 ft | 461 kts | 74° |
| 2026-05-06 17:51 | 51.93402 | 1.35588 | 28233 ft | 463 kts | 74° |
| 2026-05-06 17:51 | 51.94293 | 1.40614 | 28604 ft | 465 kts | 74° |
| 2026-05-06 17:51 | 51.95187 | 1.45667 | 28971 ft | 467 kts | 74° |
| 2026-05-06 17:51 | 51.96082 | 1.50732 | 29347 ft | 469 kts | 74° |
| 2026-05-06 17:52 | 51.96978 | 1.55816 | 29900 ft | 468 kts | 74° |
| 2026-05-06 17:52 | 51.97868 | 1.60879 | 30388 ft | 466 kts | 74° |
| 2026-05-06 17:52 | 51.98455 | 1.64223 | 30693 ft | 465 kts | 74° |
| 2026-05-06 17:52 | 51.99626 | 1.70982 | 31304 ft | 464 kts | 75° |
| 2026-05-06 17:53 | 52.00175 | 1.74327 | 31611 ft | 464 kts | 75° |
| 2026-05-06 17:53 | 52.00971 | 1.79394 | 32069 ft | 463 kts | 76° |
| 2026-05-06 17:53 | 52.01740 | 1.84459 | 32541 ft | 462 kts | 76° |
| 2026-05-06 17:53 | 52.02496 | 1.89522 | 33011 ft | 461 kts | 76° |
| 2026-05-06 17:54 | 52.03250 | 1.94571 | 33479 ft | 460 kts | 76° |
| 2026-05-06 17:54 | 52.04008 | 1.99610 | 33930 ft | 460 kts | 76° |
| 2026-05-06 17:54 | 52.04776 | 2.04655 | 34304 ft | 459 kts | 76° |
| 2026-05-06 17:54 | 52.05549 | 2.09684 | 34676 ft | 459 kts | 76° |
| 2026-05-06 17:55 | 52.06324 | 2.14723 | 35007 ft | 460 kts | 76° |
| 2026-05-06 17:55 | 52.07095 | 2.19761 | 35339 ft | 460 kts | 76° |
| 2026-05-06 17:55 | 52.07865 | 2.24822 | 35652 ft | 461 kts | 76° |
| 2026-05-06 17:55 | 52.08632 | 2.29884 | 35982 ft | 461 kts | 76° |
| 2026-05-06 17:56 | 52.09403 | 2.35003 | 36284 ft | 461 kts | 76° |
| 2026-05-06 17:56 | 52.10164 | 2.40079 | 36589 ft | 462 kts | 76° |
| 2026-05-06 17:56 | 52.10921 | 2.45154 | 36865 ft | 463 kts | 76° |
| 2026-05-06 17:56 | 52.11689 | 2.50250 | 36961 ft | 465 kts | 75° |
| 2026-05-06 17:57 | 52.13510 | 2.60392 | 36966 ft | 468 kts | 72° |
| 2026-05-06 17:57 | 52.15539 | 2.70457 | 36966 ft | 468 kts | 72° |
| 2026-05-06 17:58 | 52.17531 | 2.80564 | 36963 ft | 468 kts | 72° |
| 2026-05-06 17:58 | 52.19440 | 2.90709 | 36964 ft | 468 kts | 73° |
| 2026-05-06 17:59 | 52.21319 | 3.00867 | 36947 ft | 468 kts | 73° |
| 2026-05-06 17:59 | 52.23195 | 3.11047 | 36943 ft | 469 kts | 73° |
| 2026-05-06 18:00 | 52.24893 | 3.21322 | 36951 ft | 470 kts | 82° |
| 2026-05-06 18:00 | 52.25003 | 3.31920 | 36941 ft | 468 kts | 98° |
| 2026-05-06 18:01 | 52.24139 | 3.42447 | 36938 ft | 468 kts | 98° |
| 2026-05-06 18:01 | 52.23286 | 3.52983 | 36941 ft | 469 kts | 98° |
| 2026-05-06 18:02 | 52.22437 | 3.63528 | 36936 ft | 469 kts | 98° |
| 2026-05-06 18:02 | 52.21569 | 3.74064 | 36937 ft | 469 kts | 99° |
| 2026-05-06 18:03 | 52.20680 | 3.84606 | 36934 ft | 469 kts | 99° |
| 2026-05-06 18:03 | 52.19782 | 3.95140 | 36929 ft | 469 kts | 99° |
| 2026-05-06 18:04 | 52.18885 | 4.05668 | 36951 ft | 468 kts | 99° |
| 2026-05-06 18:04 | 52.17977 | 4.16221 | 36951 ft | 467 kts | 99° |
| 2026-05-06 18:05 | 52.17060 | 4.26681 | 36949 ft | 466 kts | 99° |
| 2026-05-06 18:05 | 52.16137 | 4.37125 | 36947 ft | 466 kts | 99° |
| 2026-05-06 18:06 | 52.15194 | 4.47640 | 36928 ft | 475 kts | 99° |
| 2026-05-06 18:06 | 52.14223 | 4.58351 | 36926 ft | 479 kts | 99° |
| 2026-05-06 18:07 | 52.13250 | 4.69087 | 36923 ft | 480 kts | 99° |
| 2026-05-06 18:07 | 52.12264 | 4.79833 | 36923 ft | 480 kts | 99° |
| 2026-05-06 18:08 | 52.11261 | 4.90564 | 36923 ft | 480 kts | 100° |
| 2026-05-06 18:08 | 52.10249 | 5.01303 | 36922 ft | 480 kts | 100° |
| 2026-05-06 18:09 | 52.09230 | 5.12024 | 36924 ft | 480 kts | 100° |
| 2026-05-06 18:09 | 52.08207 | 5.22753 | 36926 ft | 480 kts | 100° |
| 2026-05-06 18:10 | 52.07175 | 5.33465 | 36923 ft | 480 kts | 100° |
| 2026-05-06 18:10 | 52.06132 | 5.44075 | 36920 ft | 480 kts | 101° |
| 2026-05-06 18:11 | 52.05065 | 5.54844 | 36917 ft | 480 kts | 101° |
| 2026-05-06 18:11 | 52.03999 | 5.65535 | 36925 ft | 479 kts | 101° |
| 2026-05-06 18:12 | 52.02923 | 5.76226 | 36923 ft | 479 kts | 101° |
| 2026-05-06 18:12 | 52.01838 | 5.86905 | 36924 ft | 479 kts | 101° |
| 2026-05-06 18:13 | 52.00747 | 5.97575 | 36922 ft | 479 kts | 101° |
| 2026-05-06 18:13 | 51.99642 | 6.08235 | 36922 ft | 479 kts | 101° |
| 2026-05-06 18:14 | 51.98523 | 6.18891 | 36928 ft | 479 kts | 101° |
| 2026-05-06 18:14 | 51.97399 | 6.29543 | 36920 ft | 479 kts | 101° |
| 2026-05-06 18:15 | 51.96270 | 6.40177 | 36913 ft | 479 kts | 102° |
| 2026-05-06 18:15 | 51.95135 | 6.50818 | 36906 ft | 479 kts | 102° |
| 2026-05-06 18:16 | 51.93979 | 6.61460 | 36904 ft | 479 kts | 102° |
| 2026-05-06 18:16 | 51.92812 | 6.72094 | 36900 ft | 479 kts | 102° |
| 2026-05-06 18:17 | 51.91639 | 6.82728 | 36902 ft | 479 kts | 102° |
| 2026-05-06 18:17 | 51.90452 | 6.93353 | 36892 ft | 479 kts | 102° |
| 2026-05-06 18:18 | 51.89267 | 7.03975 | 36896 ft | 479 kts | 102° |
| 2026-05-06 18:18 | 51.88062 | 7.14656 | 36899 ft | 479 kts | 102° |
| 2026-05-06 18:19 | 51.86851 | 7.25263 | 36904 ft | 479 kts | 102° |
| 2026-05-06 18:19 | 51.85631 | 7.35865 | 36892 ft | 479 kts | 103° |
| 2026-05-06 18:20 | 51.84399 | 7.46471 | 36887 ft | 480 kts | 103° |
| 2026-05-06 18:20 | 51.83159 | 7.57072 | 36886 ft | 480 kts | 103° |
| 2026-05-06 18:21 | 51.81911 | 7.67674 | 36886 ft | 480 kts | 103° |
| 2026-05-06 18:21 | 51.80652 | 7.78266 | 36889 ft | 480 kts | 103° |
| 2026-05-06 18:22 | 51.79381 | 7.88864 | 36871 ft | 480 kts | 103° |
| 2026-05-06 18:22 | 51.78102 | 7.99457 | 36872 ft | 481 kts | 103° |
| 2026-05-06 18:23 | 51.76811 | 8.10049 | 36881 ft | 481 kts | 103° |
| 2026-05-06 18:23 | 51.75511 | 8.20638 | 36875 ft | 481 kts | 103° |
| 2026-05-06 18:24 | 51.74201 | 8.31212 | 36862 ft | 481 kts | 104° |
| 2026-05-06 18:24 | 51.72879 | 8.41800 | 36856 ft | 482 kts | 104° |
| 2026-05-06 18:25 | 51.71546 | 8.52384 | 36841 ft | 482 kts | 104° |
| 2026-05-06 18:25 | 51.70422 | 8.61247 | 36838 ft | 482 kts | 104° |
| 2026-05-06 18:26 | 51.69078 | 8.71827 | 36843 ft | 482 kts | 104° |
| 2026-05-06 18:26 | 51.67726 | 8.82394 | 36837 ft | 482 kts | 104° |
| 2026-05-06 18:27 | 51.66359 | 8.92967 | 36841 ft | 482 kts | 104° |
| 2026-05-06 18:27 | 51.64980 | 9.03534 | 36847 ft | 482 kts | 105° |
| 2026-05-06 18:28 | 51.63589 | 9.14089 | 36838 ft | 482 kts | 105° |
| 2026-05-06 18:28 | 51.62200 | 9.24642 | 36836 ft | 482 kts | 105° |
| 2026-05-06 18:29 | 51.60799 | 9.35175 | 36830 ft | 482 kts | 105° |
| 2026-05-06 18:29 | 51.59381 | 9.45703 | 36825 ft | 482 kts | 105° |
| 2026-05-06 18:30 | 51.57941 | 9.56294 | 36823 ft | 481 kts | 105° |
| 2026-05-06 18:30 | 51.56514 | 9.66737 | 36821 ft | 482 kts | 105° |
| 2026-05-06 18:31 | 51.55065 | 9.77315 | 36828 ft | 482 kts | 105° |
| 2026-05-06 18:31 | 51.53617 | 9.87817 | 36825 ft | 482 kts | 105° |
| 2026-05-06 18:32 | 51.52156 | 9.98319 | 36824 ft | 482 kts | 105° |
| 2026-05-06 18:32 | 51.50677 | 10.08821 | 36826 ft | 482 kts | 106° |
| 2026-05-06 18:33 | 51.49197 | 10.19316 | 36811 ft | 482 kts | 106° |
| 2026-05-06 18:33 | 51.47710 | 10.29811 | 36811 ft | 483 kts | 106° |
| 2026-05-06 18:34 | 51.46207 | 10.40298 | 36824 ft | 483 kts | 106° |
| 2026-05-06 18:34 | 51.44686 | 10.50789 | 36824 ft | 483 kts | 106° |
| 2026-05-06 18:35 | 51.43070 | 10.61229 | 36809 ft | 482 kts | 109° |
| 2026-05-06 18:35 | 51.41252 | 10.71560 | 36799 ft | 481 kts | 110° |
| 2026-05-06 18:36 | 51.39367 | 10.81836 | 36802 ft | 482 kts | 110° |
| 2026-05-06 18:36 | 51.37515 | 10.92150 | 36807 ft | 482 kts | 110° |
| 2026-05-06 18:37 | 51.35674 | 11.02532 | 36805 ft | 482 kts | 110° |
| 2026-05-06 18:37 | 51.33836 | 11.12843 | 36785 ft | 481 kts | 110° |
| 2026-05-06 18:38 | 51.31981 | 11.23125 | 36798 ft | 481 kts | 110° |
| 2026-05-06 18:38 | 51.30111 | 11.33381 | 36800 ft | 480 kts | 110° |
| 2026-05-06 18:39 | 51.28232 | 11.43625 | 36801 ft | 480 kts | 110° |
| 2026-05-06 18:40 | 51.25400 | 11.58977 | 36779 ft | 481 kts | 110° |
| 2026-05-06 18:40 | 51.23509 | 11.69218 | 36783 ft | 482 kts | 110° |
| 2026-05-06 18:41 | 51.21603 | 11.79466 | 36787 ft | 482 kts | 110° |
| 2026-05-06 18:41 | 51.19686 | 11.89700 | 36772 ft | 482 kts | 111° |
| 2026-05-06 18:42 | 51.17749 | 11.99952 | 36763 ft | 483 kts | 111° |
| 2026-05-06 18:42 | 51.15817 | 12.10167 | 36730 ft | 485 kts | 111° |
| 2026-05-06 18:42 | 51.14840 | 12.15318 | 36141 ft | 486 kts | 111° |
| 2026-05-06 18:43 | 51.13864 | 12.20462 | 35554 ft | 484 kts | 111° |
| 2026-05-06 18:43 | 51.12891 | 12.25578 | 34984 ft | 482 kts | 111° |
| 2026-05-06 18:43 | 51.11915 | 12.30678 | 34423 ft | 482 kts | 112° |
| 2026-05-06 18:43 | 51.10931 | 12.35785 | 33885 ft | 482 kts | 112° |
| 2026-05-06 18:44 | 51.09931 | 12.40949 | 33220 ft | 483 kts | 112° |
| 2026-05-06 18:44 | 51.08941 | 12.46061 | 32600 ft | 483 kts | 112° |
| 2026-05-06 18:44 | 51.07952 | 12.51170 | 31989 ft | 483 kts | 112° |
| 2026-05-06 18:44 | 51.06962 | 12.56277 | 31382 ft | 483 kts | 112° |
| 2026-05-06 18:45 | 51.05971 | 12.61376 | 30809 ft | 482 kts | 112° |
| 2026-05-06 18:45 | 51.04977 | 12.66467 | 30236 ft | 482 kts | 112° |
| 2026-05-06 18:45 | 51.03978 | 12.71549 | 29646 ft | 481 kts | 112° |
| 2026-05-06 18:45 | 51.03318 | 12.74902 | 29201 ft | 481 kts | 111° |
| 2026-05-06 18:46 | 51.01984 | 12.81681 | 28358 ft | 477 kts | 111° |
| 2026-05-06 18:46 | 51.01004 | 12.86667 | 27704 ft | 470 kts | 111° |
| 2026-05-06 18:46 | 51.00038 | 12.91583 | 27112 ft | 463 kts | 111° |
| 2026-05-06 18:46 | 50.99082 | 12.96423 | 26506 ft | 457 kts | 111° |
| 2026-05-06 18:47 | 50.98131 | 13.01207 | 25923 ft | 452 kts | 111° |
| 2026-05-06 18:47 | 50.97186 | 13.05934 | 25358 ft | 447 kts | 111° |
| 2026-05-06 18:47 | 50.96245 | 13.10613 | 24789 ft | 443 kts | 111° |
| 2026-05-06 18:47 | 50.95311 | 13.15250 | 24240 ft | 439 kts | 111° |
| 2026-05-06 18:48 | 50.94386 | 13.19836 | 23700 ft | 435 kts | 111° |
| 2026-05-06 18:48 | 50.93470 | 13.24384 | 23129 ft | 431 kts | 111° |
| 2026-05-06 18:48 | 50.92563 | 13.28893 | 22498 ft | 427 kts | 111° |
| 2026-05-06 18:48 | 50.91665 | 13.33346 | 21849 ft | 423 kts | 112° |
| 2026-05-06 18:49 | 50.90771 | 13.37771 | 21247 ft | 419 kts | 112° |
| 2026-05-06 18:49 | 50.89884 | 13.42144 | 20657 ft | 415 kts | 112° |
| 2026-05-06 18:49 | 50.89000 | 13.46483 | 20078 ft | 412 kts | 112° |
| 2026-05-06 18:49 | 50.88121 | 13.50781 | 19506 ft | 409 kts | 111° |
| 2026-05-06 18:50 | 50.87245 | 13.55052 | 18952 ft | 406 kts | 111° |
| 2026-05-06 18:50 | 50.86403 | 13.59300 | 18474 ft | 404 kts | 109° |
| 2026-05-06 18:50 | 50.85666 | 13.63572 | 18020 ft | 401 kts | 109° |
| 2026-05-06 18:50 | 50.84874 | 13.67846 | 17496 ft | 398 kts | 109° |
| 2026-05-06 18:51 | 50.84246 | 13.72108 | 16989 ft | 397 kts | 105° |
| 2026-05-06 18:51 | 50.83672 | 13.76350 | 16754 ft | 394 kts | 105° |
| 2026-05-06 18:51 | 50.83104 | 13.80587 | 16735 ft | 395 kts | 105° |
| 2026-05-06 18:51 | 50.82538 | 13.84820 | 16469 ft | 388 kts | 105° |
| 2026-05-06 18:52 | 50.81991 | 13.88923 | 16212 ft | 375 kts | 105° |
| 2026-05-06 18:52 | 50.81465 | 13.92902 | 15960 ft | 364 kts | 105° |
| 2026-05-06 18:52 | 50.80957 | 13.96753 | 15733 ft | 353 kts | 105° |
| 2026-05-06 18:52 | 50.80467 | 14.00493 | 15503 ft | 338 kts | 105° |
| 2026-05-06 18:53 | 50.80008 | 14.04036 | 15275 ft | 323 kts | 105° |
| 2026-05-06 18:53 | 50.79558 | 14.07494 | 15053 ft | 319 kts | 105° |
| 2026-05-06 18:53 | 50.79103 | 14.10918 | 14830 ft | 317 kts | 108° |
| 2026-05-06 18:53 | 50.78257 | 14.14066 | 14645 ft | 309 kts | 128° |
| 2026-05-06 18:54 | 50.76908 | 14.16659 | 14475 ft | 304 kts | 135° |
| 2026-05-06 18:54 | 50.75514 | 14.19171 | 14290 ft | 305 kts | 136° |
| 2026-05-06 18:54 | 50.74113 | 14.21690 | 14120 ft | 305 kts | 136° |
| 2026-05-06 18:54 | 50.72715 | 14.24206 | 13952 ft | 305 kts | 135° |
| 2026-05-06 18:55 | 50.71319 | 14.26719 | 13788 ft | 304 kts | 135° |
| 2026-05-06 18:55 | 50.69926 | 14.29230 | 13613 ft | 304 kts | 135° |
| 2026-05-06 18:55 | 50.68537 | 14.31733 | 13366 ft | 303 kts | 135° |
| 2026-05-06 18:55 | 50.67152 | 14.34223 | 13097 ft | 302 kts | 136° |
| 2026-05-06 18:56 | 50.65766 | 14.36710 | 12735 ft | 301 kts | 135° |
| 2026-05-06 18:56 | 50.64384 | 14.39191 | 12264 ft | 298 kts | 135° |
| 2026-05-06 18:56 | 50.63472 | 14.40831 | 11954 ft | 293 kts | 135° |
| 2026-05-06 18:56 | 50.61599 | 14.43804 | 11345 ft | 286 kts | 145° |
| 2026-05-06 18:57 | 50.59959 | 14.45584 | 10894 ft | 286 kts | 154° |
| 2026-05-06 18:57 | 50.58166 | 14.46934 | 10449 ft | 286 kts | 163° |
| 2026-05-06 18:57 | 50.56260 | 14.47769 | 10012 ft | 284 kts | 178° |
| 2026-05-06 18:57 | 50.54338 | 14.47317 | 9778 ft | 272 kts | 206° |
| 2026-05-06 18:58 | 50.53310 | 14.46281 | 9764 ft | 261 kts | 224° |
| 2026-05-06 18:58 | 50.52179 | 14.44117 | 9663 ft | 252 kts | 234° |
| 2026-05-06 18:58 | 50.51195 | 14.41877 | 9452 ft | 248 kts | 235° |
| 2026-05-06 18:58 | 50.50230 | 14.39639 | 9178 ft | 246 kts | 235° |
| 2026-05-06 18:59 | 50.49267 | 14.37411 | 8842 ft | 247 kts | 235° |
| 2026-05-06 18:59 | 50.48311 | 14.35193 | 8761 ft | 245 kts | 235° |
| 2026-05-06 18:59 | 50.47355 | 14.32975 | 8770 ft | 246 kts | 235° |
| 2026-05-06 18:59 | 50.46396 | 14.30753 | 8770 ft | 246 kts | 235° |
| 2026-05-06 19:00 | 50.45437 | 14.28524 | 8768 ft | 246 kts | 235° |
| 2026-05-06 19:00 | 50.44475 | 14.26306 | 8753 ft | 245 kts | 235° |
| 2026-05-06 19:00 | 50.43514 | 14.24088 | 8454 ft | 246 kts | 235° |
| 2026-05-06 19:00 | 50.42553 | 14.21863 | 8121 ft | 247 kts | 235° |
| 2026-05-06 19:01 | 50.41589 | 14.19633 | 7788 ft | 247 kts | 235° |
| 2026-05-06 19:01 | 50.40621 | 14.17390 | 7462 ft | 248 kts | 235° |
| 2026-05-06 19:01 | 50.39610 | 14.15207 | 7134 ft | 248 kts | 226° |
| 2026-05-06 19:01 | 50.38172 | 14.13781 | 6836 ft | 248 kts | 196° |
| 2026-05-06 19:02 | 50.36483 | 14.13753 | 6765 ft | 246 kts | 168° |
| 2026-05-06 19:02 | 50.34819 | 14.14406 | 6763 ft | 246 kts | 178° |
| 2026-05-06 19:02 | 50.33164 | 14.13944 | 6768 ft | 242 kts | 208° |
| 2026-05-06 19:02 | 50.31759 | 14.12438 | 6577 ft | 247 kts | 219° |
| 2026-05-06 19:03 | 50.30406 | 14.10701 | 6046 ft | 252 kts | 220° |
| 2026-05-06 19:03 | 50.29074 | 14.08947 | 5510 ft | 249 kts | 220° |
| 2026-05-06 19:03 | 50.27759 | 14.07218 | 5051 ft | 244 kts | 220° |
| 2026-05-06 19:03 | 50.26482 | 14.05551 | 4637 ft | 232 kts | 220° |
| 2026-05-06 19:04 | 50.25291 | 14.04009 | 4249 ft | 214 kts | 220° |
| 2026-05-06 19:04 | 50.24148 | 14.02636 | 3986 ft | 203 kts | 208° |
| 2026-05-06 19:04 | 50.22789 | 14.02117 | 3993 ft | 204 kts | 178° |
| 2026-05-06 19:04 | 50.21445 | 14.02766 | 3989 ft | 205 kts | 146° |
| 2026-05-06 19:05 | 50.20461 | 14.04388 | 3992 ft | 208 kts | 128° |
| 2026-05-06 19:05 | 50.19613 | 14.06183 | 3948 ft | 199 kts | 127° |
| 2026-05-06 19:05 | 50.18815 | 14.07864 | 3767 ft | 187 kts | 127° |
| 2026-05-06 19:05 | 50.18054 | 14.09452 | 3545 ft | 179 kts | 127° |
| 2026-05-06 19:06 | 50.17317 | 14.10989 | 3345 ft | 175 kts | 127° |
| 2026-05-06 19:06 | 50.16597 | 14.12489 | 3131 ft | 173 kts | 126° |
| 2026-05-06 19:06 | 50.15879 | 14.13984 | 2877 ft | 171 kts | 126° |
| 2026-05-06 19:06 | 50.15170 | 14.15458 | 2647 ft | 165 kts | 126° |
| 2026-05-06 19:07 | 50.14522 | 14.16804 | 2433 ft | 148 kts | 124° |
| 2026-05-06 19:07 | 50.13920 | 14.18057 | 2243 ft | 142 kts | 125° |
| 2026-05-06 19:07 | 50.13335 | 14.19271 | 2058 ft | 138 kts | 124° |
| 2026-05-06 19:07 | 50.12759 | 14.20469 | 1859 ft | 138 kts | 124° |
| 2026-05-06 19:08 | 50.12178 | 14.21674 | 1677 ft | 139 kts | 123° |
| 2026-05-06 19:08 | 50.11593 | 14.22888 | 1481 ft | 141 kts | 124° |
| 2026-05-06 19:08 | 50.10994 | 14.24131 | 1291 ft | 143 kts | 125° |
| 2026-05-06 19:08 | 50.10398 | 14.25368 | 1179 ft | 133 kts | 126° |
| 2026-05-06 19:09 | 50.09953 | 14.26301 | 1198 ft | 79 kts | 128° |
| 2026-05-06 19:09 | 50.09689 | 14.26836 | 1209 ft | 56 kts | 126° |
| 2026-05-06 19:09 | 50.09463 | 14.27304 | 1207 ft | 40 kts | 126° |
| 2026-05-06 19:09 | 50.09444 | 14.27459 | 1210 ft | 13 kts | 44° |
| 2026-05-06 19:10 | 50.09519 | 14.27544 | 1213 ft | 12 kts | 34° |
| 2026-05-06 19:10 | 50.09595 | 14.27626 | 1212 ft | 15 kts | 34° |
| 2026-05-06 19:10 | 50.09638 | 14.27632 | 1209 ft | 4 kts | 334° |
| 2026-05-06 19:10 | 50.09674 | 14.27589 | 1207 ft | 11 kts | 320° |
| 2026-05-06 19:11 | 50.09737 | 14.27486 | 1206 ft | 15 kts | 316° |
| 2026-05-06 19:11 | 50.09827 | 14.27353 | 1204 ft | 20 kts | 316° |
| 2026-05-06 19:11 | 50.09919 | 14.27180 | 1201 ft | 22 kts | 307° |
| 2026-05-06 19:11 | 50.10024 | 14.26968 | 1194 ft | 27 kts | 308° |
| 2026-05-06 19:12 | 50.10146 | 14.26713 | 1177 ft | 28 kts | 306° |
| 2026-05-06 19:12 | 50.10266 | 14.26463 | 1174 ft | 31 kts | 307° |
| 2026-05-06 19:12 | 50.10379 | 14.26228 | 1174 ft | 23 kts | 307° |
| 2026-05-06 19:12 | 50.10457 | 14.26065 | 1172 ft | 17 kts | 306° |
| 2026-05-06 19:13 | 50.10494 | 14.25988 | 1174 ft | 10 kts | 308° |
| 2026-05-06 19:13 | 50.10546 | 14.25881 | 1173 ft | 14 kts | 306° |
| 2026-05-06 19:13 | 50.10618 | 14.25808 | 1172 ft | 14 kts | 26° |
| 2026-05-06 19:13 | 50.10706 | 14.25901 | 1170 ft | 17 kts | 34° |
| 2026-05-06 19:14 | 50.10808 | 14.26009 | 1172 ft | 16 kts | 36° |
| 2026-05-06 19:14 | 50.10897 | 14.26105 | 1171 ft | 16 kts | 33° |
| 2026-05-06 19:14 | 50.10998 | 14.26212 | 1170 ft | 19 kts | 33° |
| 2026-05-06 19:14 | 50.11081 | 14.26327 | 1166 ft | 11 kts | 76° |
| 2026-05-06 19:15 | 50.11075 | 14.26450 | 1170 ft | 12 kts | 99° |
| 2026-05-06 19:15 | 50.11049 | 14.26575 | 1172 ft | 12 kts | 124° |
| 2026-05-06 19:15 | 50.10984 | 14.26647 | 1171 ft | 6 kts | 156° |
| 2026-05-06 19:15 | 50.10951 | 14.26623 | 1173 ft | 6 kts | 213° |
| 2026-05-06 19:16 | 50.10930 | 14.26600 | 1170 ft | 0 kts | 214° |
| 2026-05-06 19:16 | 50.10928 | 14.26598 | 1170 ft | 0 kts | 214° |